KPPF

Details ICAO KPPF
Name TRI CITY
Region United States
Timezone America/Chicago (UTC-6.0)
Plans Departing 1
Arriving 1
Stats Elevation 899 ft / 274 m (AMSL)
Location 37.331318° -95.508590°
Runways 2
Magnetic Variation 2.381° E
Sunrise 2017-12-13 13:29:12 UTC / 2017-12-13 07:29:12 Local
Sunset 2017-12-13 23:06:21 UTC / 2017-12-13 17:06:21 Local
Advertisement - Login to hide

Runways

ID Width Length Bearing (true) Bearing (mag) Surface Threshold Offset Overrun Length
04 100 ft / 30 m 4,007 ft / 1,221 m 44.51° 42.13° Concrete 0 ft / 0 m 0 ft / 0 m
17 100 ft / 30 m 5,700 ft / 1,737 m 179.64° 177.26° Asphalt 0 ft / 0 m 0 ft / 0 m
22 100 ft / 30 m 4,007 ft / 1,221 m 224.51° 222.13° Concrete 0 ft / 0 m 0 ft / 0 m
35 100 ft / 30 m 5,700 ft / 1,737 m 359.64° 357.26° Asphalt 0 ft / 0 m 0 ft / 0 m

Map

Weather


0- 5 10 15 20 25 30 35+ Temperature / ° C

Clouds and Precipitation
Forecast for 2017-12-13 12:00 UTC. Updated 2 hours ago

Ground ~20,000 ft ~40,000 ft Winds

METAR

KPPF 131052Z AUTO 18007KT 10SM CLR 01/M02 A2986 RMK AO2 SLP114 T00111022

TAF

Not found

Frequencies

Recorded 118.17 MHz ASOS
Unicom 123.00 MHz CTAF/UNICOM
Warning: Do not use this data for real-world aviation or navigation. No guarantee of current accuracy is given.